1987 BEMAZAVA (1987036S15066)


On this page: IBTrACS data - Map and Plots - Positions - Intensities - Original source data

Summary

Start Feb 5
End Feb 17
Basin SI
LMI 45 kt
Sources reunion
td9636
neumann
In WMO? Yes
Previous storm 1987 JASON (SP)
Previous in basin 1987 DAMIEN (SI)
Concurrent storms 1987 DAMIEN (SI)
1987 HSK1387 (SP)
1987 UMA (SP)
1987 JASON (SP)
1987 BEMAZAVA (SI)
1987 VELI (SP)
1987 CLOTILDA (SI)
1987 MISSING (SP)
Next in basin 1987 CLOTILDA (SI)
Next storm 1987 VELI (SP)

top of page IBTrACS Data: File Access

top of page HURSAT Data: File Access

Image of storm

top of page Plots:

Map of storm track will not appear if FTP is down
Time series of cyclone Maximum Sustained Wind will not appear if FTP is down
Time series of cyclone Minimum Central Pressure will not appear if FTP is down

top of page Track Data:Position

reunion td9636 neumann
Date Lat Lon Lat Lon Lat Lon
1987-02-05 06:00:00 -15.0 66.0 -15.0 66.0 -15.0 66.0
1987-02-05 12:00:00 -16.5 64.7 -16.2 65.1 -16.5 64.7
1987-02-05 18:00:00 -18.0 64.0 -17.5 64.2 -18.0 64.0
1987-02-06 00:00:00 -19.0 63.2 -18.8 63.4 -19.0 63.2
1987-02-06 06:00:00 -20.0 62.7 -20.0 62.7 -20.0 62.7
1987-02-06 12:00:00 -21.0 61.9 -20.9 62.0 -21.0 61.9
1987-02-06 18:00:00 -22.0 61.0 -21.8 61.2 -22.0 61.0
1987-02-07 00:00:00 -23.0 60.0 -22.8 60.1 -23.0 60.0
1987-02-07 06:00:00 -23.8 59.0 -23.7 59.0 -23.8 59.0
1987-02-07 12:00:00 -24.0 58.0 -24.2 57.7 -24.0 58.0
1987-02-07 18:00:00 -24.5 57.0 -24.5 57.0 -24.5 57.0
1987-02-08 00:00:00 -25.1 57.3 -25.0 57.4 -25.1 57.3
1987-02-08 06:00:00 -25.4 58.4 -25.4 58.4 -25.4 58.4
1987-02-08 12:00:00 -25.6 59.3 -25.5 59.3 -25.6 59.3
1987-02-08 18:00:00 -25.6 60.2 -25.5 60.2 -25.6 60.2
1987-02-09 00:00:00 -25.6 61.2 -25.5 61.1 -25.6 61.2
1987-02-09 06:00:00 -25.2 62.0 -25.3 62.0 -25.2 62.0
1987-02-09 12:00:00 -24.9 63.0 -24.8 63.2 -24.5 63.0
1987-02-09 18:00:00 -24.1 63.9 -24.0 64.2 -24.1 63.9
1987-02-10 00:00:00 -23.4 64.5 -23.2 64.8 -23.4 64.5
1987-02-10 06:00:00 -22.3 65.2 -22.3 65.2 -22.3 65.2
1987-02-10 12:00:00 -21.3 65.7 -21.1 65.6 -21.3 65.7
1987-02-10 18:00:00 -20.4 66.0 -20.0 66.0 -20.4 66.0
1987-02-11 00:00:00 -19.3 66.3 -19.1 66.5 -19.3 66.3
1987-02-11 06:00:00 -18.7 67.0 -18.5 67.0 -18.7 67.0
reunion td9636 neumann
1987-02-11 12:00:00 -18.6 67.1 -18.4 67.2 -18.6 67.1
1987-02-11 18:00:00 -18.4 67.1 -18.4 67.2 -18.4 67.1
1987-02-12 00:00:00 -18.2 67.2 -18.3 67.3 -18.2 67.2
1987-02-12 06:00:00 -18.1 67.3 -18.2 67.4 -18.1 67.3
1987-02-12 12:00:00 -18.1 67.6 -18.1 67.7 -18.1 67.6
1987-02-12 18:00:00 -18.1 68.0 -18.1 68.0 -18.1 68.0
1987-02-13 00:00:00 -18.3 68.3 -18.3 68.3 -18.3 68.3
1987-02-13 06:00:00 -18.4 68.6 -18.5 68.6 -18.4 68.6
1987-02-13 12:00:00 -18.5 68.9 -18.6 69.0 -18.5 68.9
1987-02-13 18:00:00 -18.6 69.1 -18.6 69.3 -18.6 69.1
1987-02-14 00:00:00 -18.7 69.4 -18.6 69.5 -18.7 69.4
1987-02-14 06:00:00 -18.8 69.7 -18.7 69.7 -18.8 69.7
1987-02-14 12:00:00 -19.0 70.0 -19.0 70.1 -19.0 70.0
1987-02-14 18:00:00 -19.3 70.2 -19.5 70.3 -19.3 70.2
1987-02-15 00:00:00 -19.9 70.2 -19.9 70.3 -19.9 70.2
1987-02-15 06:00:00 -20.3 70.0 -20.3 70.0 -20.3 70.0
1987-02-15 12:00:00 -21.0 69.0 -20.9 69.1 -21.0 69.0
1987-02-15 18:00:00 -21.4 68.0 -21.4 68.0 -21.4 68.0
1987-02-16 00:00:00 -21.7 66.9 -21.5 66.8 -21.7 66.9
1987-02-16 06:00:00 -21.5 65.8 -21.5 65.8 -21.5 65.8
1987-02-16 12:00:00 -21.5 65.3 -21.5 65.3 -21.5 65.3
1987-02-16 18:00:00 -21.4 65.0 -21.4 65.0 -21.4 65.0
1987-02-17 00:00:00 -21.2 64.8 -21.2 64.8 -21.2 64.8
1987-02-17 06:00:00 -21.0 64.7 -21.0 64.7 -21.0 64.7

top of pageTrack Data:Intensity

reunion td9636 neumann
Date Wind Pres Wind Pres Wind Pres
1987-02-05 06:00:00 20. 1003. 20. 25. 1003.
1987-02-05 12:00:00 28. 997. 20. 35. 997.
1987-02-05 18:00:00 28. 997. 25. 35. 997.
1987-02-06 00:00:00 28. 997. 25. 35. 997.
1987-02-06 06:00:00 28. 997. 30. 35. 997.
1987-02-06 12:00:00 28. 997. 30. 35. 997.
1987-02-06 18:00:00 28. 997. 25. 35. 997.
1987-02-07 00:00:00 28. 997. 25. 35. 997.
1987-02-07 06:00:00 20. 1003. 20. 30.
1987-02-07 12:00:00 20. 1003. 20. 30.
1987-02-07 18:00:00 20. 1003. 20. 30.
1987-02-08 00:00:00 20. 20. 30.
1987-02-08 06:00:00 20. 20. 25.
1987-02-08 12:00:00 36. 20. 25.
1987-02-08 18:00:00 36. 20. 30.
1987-02-09 00:00:00 36. 20. 35.
1987-02-09 06:00:00 36. 20. 40.
1987-02-09 12:00:00 36. 20. 45.
1987-02-09 18:00:00 36. 20. 45.
1987-02-10 00:00:00 36. 20. 45.
1987-02-10 06:00:00 36. 20. 45.
1987-02-10 12:00:00 36. 20. 45.
1987-02-10 18:00:00 36. 20. 45.
1987-02-11 00:00:00 36. 20. 45.
1987-02-11 06:00:00 36. 20. 45.
reunion td9636 neumann
1987-02-11 12:00:00 36. 20. 45.
1987-02-11 18:00:00 36. 20. 45.
1987-02-12 00:00:00 36. 20. 45.
1987-02-12 06:00:00 36. 20. 45.
1987-02-12 12:00:00 36. 20. 45.
1987-02-12 18:00:00 36. 20. 45.
1987-02-13 00:00:00 36. 20. 45.
1987-02-13 06:00:00 36. 20. 45.
1987-02-13 12:00:00 36. 20. 40.
1987-02-13 18:00:00 36. 20. 35.
1987-02-14 00:00:00 20. 1003. 20. 25. 1003.
1987-02-14 06:00:00 24. 1000. 20. 30. 1000.
1987-02-14 12:00:00 28. 997. 20. 35. 997.
1987-02-14 18:00:00 24. 1000. 20. 30. 1000.
1987-02-15 00:00:00 20. 1003. 20. 30. 1000.
1987-02-15 06:00:00 36. 20. 30.
1987-02-15 12:00:00 36. 20. 35.
1987-02-15 18:00:00 36. 20. 40.
1987-02-16 00:00:00 36. 20. 35.
1987-02-16 06:00:00 36. 15. 30.
1987-02-16 12:00:00 36. 15. 25.
1987-02-16 18:00:00 36. 15. 25.
1987-02-17 00:00:00 36. 15. 25.
1987-02-17 06:00:00 36. 15. 25.

top of page Links to source data

Source Source file Format
reunion WMO-Best-Tracks.txt:Line=13720:bemazava WMO (old format)
td9636 cons_worldwide_trop_cyclone_18710101-19891231-005:Line=13490 TD 9636
neumann tracks.sh:Storm=801:BEMAZAVA:BSH991987:Reunion HURDAT